createdAt,value
2023-09-26T00:00:25.018Z,1010.13
2023-09-26T00:01:25.282Z,1010.13
2023-09-26T00:02:24.771Z,1010.12
2023-09-26T00:03:24.832Z,1010.11
2023-09-26T00:04:25.466Z,1010.10
2023-09-26T00:05:25.297Z,1010.10
2023-09-26T00:06:25.256Z,1010.11
2023-09-26T00:07:24.697Z,1010.11
2023-09-26T00:08:24.737Z,1010.12
2023-09-26T00:09:24.691Z,1010.12
2023-09-26T00:10:24.712Z,1010.12
2023-09-26T00:11:24.655Z,1010.11
2023-09-26T00:12:24.670Z,1010.09
2023-09-26T00:13:24.705Z,1010.07
2023-09-26T00:14:24.646Z,1010.06
2023-09-26T00:15:24.633Z,1010.06
2023-09-26T00:16:24.725Z,1010.06
2023-09-26T00:17:24.614Z,1010.06
2023-09-26T00:18:24.586Z,1010.05
2023-09-26T00:19:24.592Z,1010.06
2023-09-26T00:20:24.567Z,1010.07
2023-09-26T00:21:24.580Z,1010.08
2023-09-26T00:22:24.618Z,1010.09
2023-09-26T00:23:24.546Z,1010.10
2023-09-26T00:24:24.546Z,1010.11
2023-09-26T00:25:24.604Z,1010.11
2023-09-26T00:26:24.521Z,1010.12
2023-09-26T00:27:24.529Z,1010.11
2023-09-26T00:28:24.594Z,1010.10
2023-09-26T00:29:24.469Z,1010.10
2023-09-26T00:30:24.467Z,1010.09
2023-09-26T00:31:24.525Z,1010.10
2023-09-26T00:32:24.477Z,1010.11
2023-09-26T00:33:24.452Z,1010.12
2023-09-26T00:34:24.445Z,1010.14
2023-09-26T00:35:24.410Z,1010.15
2023-09-26T00:36:24.429Z,1010.16
2023-09-26T00:37:24.590Z,1010.16
2023-09-26T00:38:24.467Z,1010.16
2023-09-26T00:39:24.368Z,1010.16
2023-09-26T00:40:24.461Z,1010.17
2023-09-26T00:41:24.346Z,1010.17
2023-09-26T00:42:24.345Z,1010.18
2023-09-26T00:43:24.370Z,1010.19
2023-09-26T00:44:24.334Z,1010.19
2023-09-26T00:45:24.323Z,1010.19
2023-09-26T00:46:24.342Z,1010.20
2023-09-26T00:47:24.282Z,1010.20
2023-09-26T00:48:24.283Z,1010.20
2023-09-26T00:49:24.289Z,1010.20
2023-09-26T00:50:24.266Z,1010.20
2023-09-26T00:51:24.241Z,1010.20
2023-09-26T00:52:24.326Z,1010.20
2023-09-26T00:53:24.240Z,1010.20
2023-09-26T00:54:24.212Z,1010.20
2023-09-26T00:55:24.243Z,1010.20
2023-09-26T00:56:24.192Z,1010.18
2023-09-26T00:57:24.204Z,1010.17
2023-09-26T00:58:24.290Z,1010.16
2023-09-26T00:59:24.176Z,1010.14
2023-09-26T01:00:24.165Z,1010.14
2023-09-26T01:01:24.227Z,1010.15
2023-09-26T01:02:24.150Z,1010.15
2023-09-26T01:03:24.162Z,1010.14
2023-09-26T01:04:24.193Z,1010.13
2023-09-26T01:05:24.091Z,1010.11
2023-09-26T01:06:24.093Z,1010.09
2023-09-26T01:07:24.169Z,1010.07
2023-09-26T01:08:24.081Z,1010.06
2023-09-26T01:09:24.049Z,1010.05
2023-09-26T01:10:24.065Z,1010.06
2023-09-26T01:11:24.021Z,1010.06
2023-09-26T01:12:24.028Z,1010.05
2023-09-26T01:13:24.063Z,1010.04
2023-09-26T01:14:23.998Z,1010.03
2023-09-26T01:15:23.987Z,1010.02
2023-09-26T01:16:24.089Z,1010.01
2023-09-26T01:17:24.009Z,1010.00
2023-09-26T01:18:23.949Z,1009.99
2023-09-26T01:19:24.012Z,1010.00
2023-09-26T01:20:23.933Z,1009.97
2023-09-26T01:21:23.958Z,1009.97
2023-09-26T01:22:23.975Z,1009.96
2023-09-26T01:23:23.913Z,1009.95
2023-09-26T01:24:23.889Z,1009.94
2023-09-26T01:25:23.960Z,1009.94
2023-09-26T01:26:23.868Z,1009.94
2023-09-26T01:27:24.138Z,1009.93
2023-09-26T01:28:23.926Z,1009.92
2023-09-26T01:29:23.844Z,1009.90
2023-09-26T01:30:23.848Z,1009.87
2023-09-26T01:31:23.880Z,1009.84
2023-09-26T01:32:23.823Z,1009.82
2023-09-26T01:33:23.835Z,1009.80
2023-09-26T01:34:23.816Z,1009.77
2023-09-26T01:35:23.779Z,1009.76
2023-09-26T01:36:23.792Z,1009.75
2023-09-26T01:37:23.837Z,1009.73
2023-09-26T01:38:23.761Z,1009.73
2023-09-26T01:39:23.753Z,1009.73
2023-09-26T01:40:23.765Z,1009.72
2023-09-26T01:41:23.715Z,1009.72
2023-09-26T01:42:23.722Z,1009.71
2023-09-26T01:43:23.756Z,1009.70
2023-09-26T01:44:23.682Z,1009.70
2023-09-26T01:45:23.669Z,1009.69
2023-09-26T01:46:23.769Z,1009.69
2023-09-26T01:47:23.721Z,1009.69
2023-09-26T01:48:23.648Z,1009.68
2023-09-26T01:49:23.711Z,1009.67
2023-09-26T01:50:23.629Z,1009.65
2023-09-26T01:51:23.606Z,1009.63
2023-09-26T01:52:23.647Z,1009.61
2023-09-26T01:53:23.619Z,1009.60
2023-09-26T01:54:23.573Z,1009.60
2023-09-26T01:55:23.616Z,1009.60
2023-09-26T01:56:23.545Z,1009.59
2023-09-26T01:57:23.551Z,1009.59
2023-09-26T01:58:23.627Z,1009.59
2023-09-26T01:59:23.520Z,1009.59
2023-09-26T02:00:23.603Z,1009.58
2023-09-26T02:01:23.572Z,1009.56
2023-09-26T02:02:23.540Z,1009.56
2023-09-26T02:03:24.537Z,1009.55
2023-09-26T02:04:23.498Z,1009.54
2023-09-26T02:05:23.465Z,1009.53
2023-09-26T02:06:23.527Z,1009.53
2023-09-26T02:07:23.462Z,1009.53
2023-09-26T02:08:23.444Z,1009.53
2023-09-26T02:09:23.429Z,1009.54
2023-09-26T02:10:23.501Z,1009.54
2023-09-26T02:11:23.408Z,1009.53
2023-09-26T02:12:23.394Z,1009.52
2023-09-26T02:13:23.470Z,1009.51
2023-09-26T02:14:23.395Z,1009.51
2023-09-26T02:15:23.351Z,1009.49
2023-09-26T02:16:23.422Z,1009.49
2023-09-26T02:17:23.335Z,1009.48
2023-09-26T02:18:23.323Z,1009.48
2023-09-26T02:19:23.333Z,1009.48
2023-09-26T02:20:23.337Z,1009.48
2023-09-26T02:21:23.298Z,1009.49
2023-09-26T02:22:23.348Z,1009.50
2023-09-26T02:23:23.257Z,1009.50
2023-09-26T02:24:23.273Z,1009.51
2023-09-26T02:25:23.298Z,1009.52
2023-09-26T02:26:23.269Z,1009.51
2023-09-26T02:27:23.227Z,1009.51
2023-09-26T02:28:23.251Z,1009.51
2023-09-26T02:29:23.220Z,1009.49
2023-09-26T02:30:23.222Z,1009.48
2023-09-26T02:31:23.248Z,1009.46
2023-09-26T02:32:23.233Z,1009.44
2023-09-26T02:33:23.190Z,1009.43
2023-09-26T02:34:23.227Z,1009.41
2023-09-26T02:35:23.152Z,1009.40
2023-09-26T02:36:23.136Z,1009.40
2023-09-26T02:37:23.163Z,1009.40
2023-09-26T02:38:23.224Z,1009.40
2023-09-26T02:39:23.100Z,1009.39
2023-09-26T02:40:23.134Z,1009.39
2023-09-26T02:41:23.087Z,1009.38
2023-09-26T02:42:23.083Z,1009.37
2023-09-26T02:43:23.064Z,1009.37
2023-09-26T02:44:23.081Z,1009.39
2023-09-26T02:45:23.040Z,1009.40
2023-09-26T02:46:23.130Z,1009.41
2023-09-26T02:47:23.059Z,1009.42
2023-09-26T02:48:23.017Z,1009.42
2023-09-26T02:49:23.126Z,1009.41
2023-09-26T02:50:22.992Z,1009.40
2023-09-26T02:51:22.967Z,1009.40
2023-09-26T02:52:23.044Z,1009.39
2023-09-26T02:53:22.988Z,1009.39
2023-09-26T02:54:22.946Z,1009.39
2023-09-26T02:55:22.974Z,1009.38
2023-09-26T02:56:22.921Z,1009.37
2023-09-26T02:57:22.916Z,1009.38
2023-09-26T02:58:22.936Z,1009.38
2023-09-26T02:59:22.903Z,1009.38
2023-09-26T03:00:22.914Z,1009.39
2023-09-26T03:01:22.962Z,1009.39
2023-09-26T03:02:22.987Z,1009.39
2023-09-26T03:03:22.858Z,1009.39
2023-09-26T03:04:22.880Z,1009.40
2023-09-26T03:05:22.849Z,1009.40
2023-09-26T03:06:22.829Z,1009.40
2023-09-26T03:07:22.874Z,1009.40
2023-09-26T03:08:22.799Z,1009.40
2023-09-26T03:09:22.780Z,1009.41
2023-09-26T03:10:22.830Z,1009.41
2023-09-26T03:11:22.776Z,1009.41
2023-09-26T03:12:22.751Z,1009.40
2023-09-26T03:13:22.792Z,1009.39
2023-09-26T03:14:22.749Z,1009.39
2023-09-26T03:15:22.760Z,1009.38
2023-09-26T03:16:22.828Z,1009.38
2023-09-26T03:17:22.702Z,1009.37
2023-09-26T03:18:22.686Z,1009.36
2023-09-26T03:19:22.701Z,1009.34
2023-09-26T03:20:22.686Z,1009.32
2023-09-26T03:21:22.670Z,1009.31
2023-09-26T03:22:22.799Z,1009.30
2023-09-26T03:23:22.715Z,1009.29
2023-09-26T03:24:22.625Z,1009.29
2023-09-26T03:25:22.686Z,1009.29
2023-09-26T03:26:22.612Z,1009.31
2023-09-26T03:27:22.594Z,1009.32
2023-09-26T03:28:22.633Z,1009.32
2023-09-26T03:29:22.580Z,1009.33
2023-09-26T03:30:22.600Z,1009.32
2023-09-26T03:31:22.638Z,1009.32
2023-09-26T03:32:22.615Z,1009.31
2023-09-26T03:33:22.529Z,1009.30
2023-09-26T03:34:22.573Z,1009.30
2023-09-26T03:35:22.544Z,1009.30
2023-09-26T03:36:22.528Z,1009.31
2023-09-26T03:37:22.530Z,1009.33
2023-09-26T03:38:22.526Z,1009.33
2023-09-26T03:39:22.484Z,1009.32
2023-09-26T03:40:22.700Z,1009.32
2023-09-26T03:41:22.466Z,1009.31
2023-09-26T03:42:22.445Z,1009.30
2023-09-26T03:43:22.463Z,1009.30
2023-09-26T03:44:22.428Z,1009.30
2023-09-26T03:45:22.414Z,1009.30
2023-09-26T03:46:22.463Z,1009.29
2023-09-26T03:47:22.452Z,1009.27
2023-09-26T03:48:22.452Z,1009.26
2023-09-26T03:49:22.383Z,1009.24
2023-09-26T03:50:22.370Z,1009.23
2023-09-26T03:51:22.358Z,1009.23
2023-09-26T03:52:22.415Z,1009.22
2023-09-26T03:53:22.332Z,1009.21
2023-09-26T03:54:22.330Z,1009.20
2023-09-26T03:55:22.384Z,1009.21
2023-09-26T03:56:22.309Z,1009.20
2023-09-26T03:57:22.289Z,1009.19
2023-09-26T03:58:22.341Z,1009.19
2023-09-26T03:59:22.272Z,1009.18
2023-09-26T04:00:22.250Z,1009.18
2023-09-26T04:01:22.337Z,1009.19
2023-09-26T04:02:22.294Z,1009.21
2023-09-26T04:03:23.401Z,1009.21
2023-09-26T04:04:22.256Z,1009.22
2023-09-26T04:05:22.192Z,1009.21
2023-09-26T04:06:22.240Z,1009.20
2023-09-26T04:07:22.300Z,1009.18
2023-09-26T04:08:22.172Z,1009.17
2023-09-26T04:09:22.191Z,1009.15
2023-09-26T04:10:22.211Z,1009.14
2023-09-26T04:11:22.152Z,1009.13
2023-09-26T04:12:22.137Z,1009.13
2023-09-26T04:13:22.144Z,1009.12
2023-09-26T04:14:22.121Z,1009.12
2023-09-26T04:15:22.121Z,1009.12
2023-09-26T04:16:22.126Z,1009.13
2023-09-26T04:17:22.076Z,1009.14
2023-09-26T04:18:22.062Z,1009.15
2023-09-26T04:19:22.203Z,1009.16
2023-09-26T04:20:36.579Z,1009.18
2023-09-26T04:21:22.060Z,1009.18
2023-09-26T04:22:22.222Z,1009.18
2023-09-26T04:23:22.033Z,1009.17
2023-09-26T04:24:22.011Z,1009.15
2023-09-26T04:25:22.107Z,1009.15
2023-09-26T04:26:21.988Z,1009.14
2023-09-26T04:27:22.002Z,1009.14
2023-09-26T04:28:22.019Z,1009.14
2023-09-26T04:29:21.945Z,1009.14
2023-09-26T04:30:21.957Z,1009.13
2023-09-26T04:31:22.017Z,1009.12
2023-09-26T04:32:21.934Z,1009.09
2023-09-26T04:33:21.910Z,1009.08
2023-09-26T04:34:21.936Z,1009.06
2023-09-26T04:35:21.909Z,1009.05
2023-09-26T04:36:21.895Z,1009.03
2023-09-26T04:37:21.960Z,1009.02
2023-09-26T04:38:21.925Z,1009.01
2023-09-26T04:39:21.868Z,1009.00
2023-09-26T04:40:21.963Z,1008.99
2023-09-26T04:41:21.860Z,1008.99
2023-09-26T04:42:21.811Z,1008.99
2023-09-26T04:43:21.860Z,1008.99
2023-09-26T04:44:21.797Z,1008.98
2023-09-26T04:45:21.812Z,1008.97
2023-09-26T04:46:21.921Z,1008.97
2023-09-26T04:47:21.849Z,1008.96
2023-09-26T04:48:21.759Z,1008.96
2023-09-26T04:49:21.780Z,1008.96
2023-09-26T04:50:21.736Z,1008.95
2023-09-26T04:51:21.801Z,1008.95
2023-09-26T04:52:21.691Z,1008.94
2023-09-26T04:53:21.709Z,1008.93
2023-09-26T04:54:21.698Z,1008.93
2023-09-26T04:55:21.765Z,1008.92
2023-09-26T04:56:21.702Z,1008.90
2023-09-26T04:57:21.612Z,1008.90
2023-09-26T04:58:21.737Z,1008.88
2023-09-26T04:59:21.659Z,1008.86
2023-09-26T05:00:21.616Z,1008.85
2023-09-26T05:01:21.654Z,1008.86
2023-09-26T05:02:21.583Z,1008.86
2023-09-26T05:03:21.655Z,1008.88
2023-09-26T05:04:21.629Z,1008.90
2023-09-26T05:05:21.529Z,1008.91
2023-09-26T05:06:21.511Z,1008.93
2023-09-26T05:07:21.550Z,1008.93
2023-09-26T05:08:21.489Z,1008.92
2023-09-26T05:09:21.481Z,1008.90
2023-09-26T05:10:21.523Z,1008.88
2023-09-26T05:11:21.471Z,1008.86
2023-09-26T05:12:21.556Z,1008.83
2023-09-26T05:13:21.476Z,1008.81
2023-09-26T05:14:21.428Z,1008.81
2023-09-26T05:15:21.428Z,1008.78
2023-09-26T05:16:21.557Z,1008.79
2023-09-26T05:17:22.145Z,1008.79
2023-09-26T05:18:21.386Z,1008.79
2023-09-26T05:19:21.412Z,1008.79
2023-09-26T05:20:21.383Z,1008.78
2023-09-26T05:21:21.360Z,1008.78
2023-09-26T05:22:21.468Z,1008.79
2023-09-26T05:23:21.338Z,1008.79
2023-09-26T05:24:21.325Z,1008.79
2023-09-26T05:25:21.382Z,1008.79
2023-09-26T05:26:21.321Z,1008.79
2023-09-26T05:27:21.417Z,1008.79
2023-09-26T05:28:21.326Z,1008.79
2023-09-26T05:29:21.279Z,1008.78
2023-09-26T05:30:21.266Z,1008.78
2023-09-26T05:31:21.371Z,1008.78
2023-09-26T05:32:21.234Z,1008.78
2023-09-26T05:33:21.274Z,1008.79
2023-09-26T05:34:21.283Z,1008.81
2023-09-26T05:35:21.244Z,1008.82
2023-09-26T05:36:21.210Z,1008.84
2023-09-26T05:37:21.247Z,1008.85
2023-09-26T05:38:21.197Z,1008.85
2023-09-26T05:39:21.208Z,1008.84
2023-09-26T05:40:21.227Z,1008.84
2023-09-26T05:41:21.312Z,1008.83
2023-09-26T05:42:21.147Z,1008.83
2023-09-26T05:43:21.234Z,1008.82
2023-09-26T05:44:21.227Z,1008.83
2023-09-26T05:45:21.098Z,1008.85
2023-09-26T05:46:21.274Z,1008.87
2023-09-26T05:47:22.653Z,1008.90
2023-09-26T05:48:21.151Z,1008.91
2023-09-26T05:49:21.116Z,1008.92
2023-09-26T05:50:21.060Z,1008.93
2023-09-26T05:51:21.055Z,1008.92
2023-09-26T05:52:21.150Z,1008.93
2023-09-26T05:53:21.029Z,1008.92
2023-09-26T05:54:31.329Z,1008.92
2023-09-26T05:55:21.100Z,1008.91
2023-09-26T05:56:21.054Z,1008.92
2023-09-26T05:57:20.988Z,1008.94
2023-09-26T05:58:21.036Z,1008.96
2023-09-26T05:59:20.975Z,1008.99
2023-09-26T06:00:21.068Z,1009.01
2023-09-26T06:01:21.008Z,1009.02
2023-09-26T06:02:21.101Z,1009.03
2023-09-26T06:03:20.988Z,1009.03
2023-09-26T06:04:20.998Z,1009.02
2023-09-26T06:05:21.058Z,1009.01
2023-09-26T06:06:20.913Z,1008.99
2023-09-26T06:07:20.936Z,1008.97
2023-09-26T06:08:20.878Z,1008.95
2023-09-26T06:09:20.869Z,1008.93
2023-09-26T06:10:20.875Z,1008.91
2023-09-26T06:11:20.840Z,1008.89
2023-09-26T06:12:20.824Z,1008.87
2023-09-26T06:13:20.861Z,1008.86
2023-09-26T06:14:20.790Z,1008.86
2023-09-26T06:15:20.828Z,1008.87
2023-09-26T06:16:20.905Z,1008.88
2023-09-26T06:17:20.831Z,1008.89
2023-09-26T06:18:20.833Z,1008.91
2023-09-26T06:19:20.818Z,1008.92
2023-09-26T06:20:20.774Z,1008.94
2023-09-26T06:21:20.767Z,1008.95
2023-09-26T06:22:20.768Z,1008.95
2023-09-26T06:23:20.785Z,1008.94
2023-09-26T06:24:20.707Z,1008.94
2023-09-26T06:25:21.392Z,1008.93
2023-09-26T06:26:20.793Z,1008.92
2023-09-26T06:27:20.695Z,1008.92
2023-09-26T06:28:20.730Z,1008.92
2023-09-26T06:29:20.648Z,1008.92
2023-09-26T06:30:20.662Z,1008.92
2023-09-26T06:31:20.737Z,1008.93
2023-09-26T06:32:20.676Z,1008.93
2023-09-26T06:33:20.768Z,1008.93
2023-09-26T06:34:20.585Z,1008.94
2023-09-26T06:35:20.576Z,1008.94
2023-09-26T06:36:20.575Z,1008.94
2023-09-26T06:37:20.842Z,1008.93
2023-09-26T06:38:20.547Z,1008.92
2023-09-26T06:39:20.580Z,1008.91
2023-09-26T06:40:20.592Z,1008.90
2023-09-26T06:41:20.547Z,1008.89
2023-09-26T06:42:20.657Z,1008.88
2023-09-26T06:43:20.580Z,1008.87
2023-09-26T06:44:20.487Z,1008.85
2023-09-26T06:45:20.472Z,1008.83
2023-09-26T06:46:20.545Z,1008.81
2023-09-26T06:47:20.512Z,1008.79
2023-09-26T06:48:20.474Z,1008.78
2023-09-26T06:49:20.625Z,1008.79
2023-09-26T06:50:20.411Z,1008.80
2023-09-26T06:51:20.417Z,1008.82
2023-09-26T06:52:20.398Z,1008.85
2023-09-26T06:53:20.416Z,1008.87
2023-09-26T06:54:20.379Z,1008.88
2023-09-26T06:55:20.426Z,1008.89
2023-09-26T06:56:20.351Z,1008.89
2023-09-26T06:57:20.347Z,1008.90
2023-09-26T06:58:20.434Z,1008.92
2023-09-26T06:59:20.334Z,1008.93
2023-09-26T07:00:20.372Z,1008.96
2023-09-26T07:01:20.366Z,1008.97
2023-09-26T07:02:20.336Z,1008.97
2023-09-26T07:03:21.168Z,1008.96
2023-09-26T07:04:20.358Z,1008.94
2023-09-26T07:05:20.275Z,1008.94
2023-09-26T07:06:20.270Z,1008.93
2023-09-26T07:07:20.301Z,1008.93
2023-09-26T07:08:20.382Z,1008.93
2023-09-26T07:09:20.237Z,1008.95
2023-09-26T07:10:20.248Z,1008.97
2023-09-26T07:11:20.262Z,1008.98
2023-09-26T07:12:20.311Z,1009.01
2023-09-26T07:13:44.383Z,1009.01
2023-09-26T07:14:20.311Z,1009.02
2023-09-26T07:15:20.178Z,1009.02
2023-09-26T07:16:20.244Z,1009.04
2023-09-26T07:17:20.235Z,1009.08
2023-09-26T07:18:20.200Z,1009.09
2023-09-26T07:19:20.161Z,1009.10
2023-09-26T07:20:20.127Z,1009.09
2023-09-26T07:21:20.089Z,1009.08
2023-09-26T07:22:20.106Z,1009.08
2023-09-26T07:23:20.098Z,1009.05
2023-09-26T07:24:21.628Z,1009.03
2023-09-26T07:25:20.098Z,1009.00
2023-09-26T07:26:20.047Z,1009.00
2023-09-26T07:27:20.052Z,1008.99
2023-09-26T07:28:20.036Z,1008.99
2023-09-26T07:29:20.121Z,1009.01
2023-09-26T07:30:19.998Z,1009.02
2023-09-26T07:31:20.216Z,1009.02
2023-09-26T07:32:19.976Z,1009.02
2023-09-26T07:33:19.970Z,1009.00
2023-09-26T07:34:19.986Z,1008.98
2023-09-26T07:35:20.003Z,1008.96
2023-09-26T07:36:19.933Z,1008.94
2023-09-26T07:37:19.944Z,1008.93
2023-09-26T07:38:19.909Z,1008.92
2023-09-26T07:39:19.977Z,1008.91
2023-09-26T07:40:20.027Z,1008.89
2023-09-26T07:41:19.923Z,1008.87
2023-09-26T07:42:19.882Z,1008.87
2023-09-26T07:43:19.943Z,1008.87
2023-09-26T07:44:19.870Z,1008.88
2023-09-26T07:45:19.830Z,1008.90
2023-09-26T07:46:19.924Z,1008.92
2023-09-26T07:47:19.985Z,1008.95
2023-09-26T07:48:19.799Z,1008.97
2023-09-26T07:49:19.823Z,1008.98
2023-09-26T07:50:19.808Z,1008.97
2023-09-26T07:51:19.802Z,1008.97
2023-09-26T07:52:19.923Z,1008.96
2023-09-26T07:53:19.840Z,1008.95
2023-09-26T07:54:19.754Z,1008.96
2023-09-26T07:55:19.767Z,1008.95
2023-09-26T07:56:19.720Z,1008.93
2023-09-26T07:57:19.723Z,1008.92
2023-09-26T07:58:19.719Z,1008.91
2023-09-26T07:59:19.687Z,1008.91
2023-09-26T08:00:19.695Z,1008.91
2023-09-26T08:01:19.725Z,1008.91
2023-09-26T08:02:19.703Z,1008.92
2023-09-26T08:03:19.703Z,1008.92
2023-09-26T08:04:19.840Z,1008.90
2023-09-26T08:05:19.655Z,1008.90
2023-09-26T08:06:19.641Z,1008.89
2023-09-26T08:07:19.741Z,1008.91
2023-09-26T08:08:19.621Z,1008.93
2023-09-26T08:09:19.633Z,1008.94
2023-09-26T08:10:19.709Z,1008.95
2023-09-26T08:11:19.565Z,1008.96
2023-09-26T08:12:19.562Z,1008.97
2023-09-26T08:13:19.542Z,1008.97
2023-09-26T08:14:19.544Z,1008.98
2023-09-26T08:15:19.540Z,1009.00
2023-09-26T08:16:19.621Z,1009.01
2023-09-26T08:17:19.527Z,1009.02
2023-09-26T08:18:19.517Z,1009.03
2023-09-26T08:19:19.537Z,1009.03
2023-09-26T08:20:19.492Z,1009.03
2023-09-26T08:21:19.457Z,1009.02
2023-09-26T08:22:19.500Z,1009.01
2023-09-26T08:23:19.433Z,1009.00
2023-09-26T08:24:19.438Z,1008.99
2023-09-26T08:25:19.479Z,1008.99
2023-09-26T08:26:19.433Z,1008.97
2023-09-26T08:27:19.394Z,1008.96
2023-09-26T08:28:19.393Z,1008.95
2023-09-26T08:29:19.376Z,1008.95
2023-09-26T08:30:19.373Z,1008.95
2023-09-26T08:31:19.641Z,1008.96
2023-09-26T08:32:19.661Z,1008.98
2023-09-26T08:33:19.382Z,1009.01
2023-09-26T08:34:19.376Z,1009.03
2023-09-26T08:35:19.656Z,1009.03
2023-09-26T08:36:19.325Z,1009.04
2023-09-26T08:37:19.320Z,1009.04
2023-09-26T08:38:19.309Z,1009.03
2023-09-26T08:39:19.266Z,1009.01
2023-09-26T08:40:19.283Z,1008.99
2023-09-26T08:41:19.485Z,1008.96
2023-09-26T08:42:19.252Z,1008.95
2023-09-26T08:43:19.287Z,1008.94
2023-09-26T08:44:19.335Z,1008.95
2023-09-26T08:45:19.231Z,1008.97
2023-09-26T08:46:19.261Z,1008.99
2023-09-26T08:47:19.326Z,1009.01
2023-09-26T08:48:19.207Z,1009.03
2023-09-26T08:49:19.332Z,1009.02
2023-09-26T08:50:19.217Z,1009.01
2023-09-26T08:51:19.196Z,1008.99
2023-09-26T08:52:19.166Z,1008.99
2023-09-26T08:53:19.164Z,1008.98
2023-09-26T08:54:19.138Z,1008.98
2023-09-26T08:55:19.133Z,1008.99
2023-09-26T08:56:19.100Z,1008.99
2023-09-26T08:57:19.086Z,1009.00
2023-09-26T08:58:19.113Z,1009.01
2023-09-26T08:59:19.186Z,1009.00
2023-09-26T09:00:19.058Z,1009.00
2023-09-26T09:01:19.120Z,1008.99
2023-09-26T09:02:19.067Z,1008.98
2023-09-26T09:03:19.068Z,1008.97
2023-09-26T09:04:19.143Z,1008.96
2023-09-26T09:05:19.003Z,1008.96
2023-09-26T09:06:19.019Z,1008.96
2023-09-26T09:07:19.007Z,1008.95
2023-09-26T09:08:18.978Z,1008.94
2023-09-26T09:09:19.000Z,1008.94
2023-09-26T09:10:19.005Z,1008.93
2023-09-26T09:11:18.947Z,1008.92
2023-09-26T09:12:18.939Z,1008.90
2023-09-26T09:13:18.988Z,1008.89
2023-09-26T09:14:18.929Z,1008.88
2023-09-26T09:15:18.920Z,1008.87
2023-09-26T09:16:19.083Z,1008.85
2023-09-26T09:17:18.948Z,1008.82
2023-09-26T09:18:18.889Z,1008.80
2023-09-26T09:19:18.933Z,1008.77
2023-09-26T09:20:18.889Z,1008.76
2023-09-26T09:21:18.833Z,1008.75
2023-09-26T09:22:18.927Z,1008.74
2023-09-26T09:23:18.834Z,1008.72
2023-09-26T09:24:18.832Z,1008.72
2023-09-26T09:25:18.835Z,1008.70
2023-09-26T09:26:18.805Z,1008.69
2023-09-26T09:27:18.770Z,1008.70
2023-09-26T09:28:18.822Z,1008.69
2023-09-26T09:29:18.814Z,1008.70
2023-09-26T09:30:18.741Z,1008.69
2023-09-26T09:31:18.848Z,1008.69
2023-09-26T09:32:18.741Z,1008.69
2023-09-26T09:33:18.740Z,1008.67
2023-09-26T09:34:18.714Z,1008.66
2023-09-26T09:35:18.718Z,1008.64
2023-09-26T09:36:18.704Z,1008.62
2023-09-26T09:37:18.715Z,1008.61
2023-09-26T09:38:18.696Z,1008.60
2023-09-26T09:39:18.661Z,1008.58
2023-09-26T09:40:18.695Z,1008.57
2023-09-26T09:41:18.635Z,1008.58
2023-09-26T09:42:18.638Z,1008.55
2023-09-26T09:43:18.669Z,1008.55
2023-09-26T09:44:18.665Z,1008.54
2023-09-26T09:45:18.662Z,1008.53
2023-09-26T09:46:18.772Z,1008.51
2023-09-26T09:47:18.653Z,1008.48
2023-09-26T09:48:18.613Z,1008.46
2023-09-26T09:49:18.705Z,1008.46
2023-09-26T09:50:18.697Z,1008.43
2023-09-26T09:51:18.575Z,1008.41
2023-09-26T09:52:18.573Z,1008.40
2023-09-26T09:53:18.509Z,1008.39
2023-09-26T09:54:18.607Z,1008.37
2023-09-26T09:55:18.650Z,1008.35
2023-09-26T09:56:18.481Z,1008.36
2023-09-26T09:57:18.600Z,1008.32
2023-09-26T09:58:18.537Z,1008.32
2023-09-26T09:59:18.626Z,1008.28
2023-09-26T10:00:18.451Z,1008.27
2023-09-26T10:01:18.526Z,1008.27
2023-09-26T10:02:18.535Z,1008.25
2023-09-26T10:03:18.468Z,1008.24
2023-09-26T10:04:18.455Z,1008.23
2023-09-26T10:05:18.395Z,1008.24
2023-09-26T10:06:18.389Z,1008.22
2023-09-26T10:07:18.358Z,1008.23
2023-09-26T10:08:18.343Z,1008.24
2023-09-26T10:09:18.341Z,1008.22
2023-09-26T10:10:18.401Z,1008.22
2023-09-26T10:11:18.454Z,1008.21
2023-09-26T10:12:18.308Z,1008.23
2023-09-26T10:14:18.290Z,1008.24
2023-09-26T10:15:18.347Z,1008.25
2023-09-26T10:16:18.326Z,1008.27
2023-09-26T10:17:18.365Z,1008.28
2023-09-26T10:18:18.248Z,1008.29
2023-09-26T10:19:18.271Z,1008.27
2023-09-26T10:20:44.693Z,1008.27
2023-09-26T10:21:18.248Z,1008.26
2023-09-26T10:22:18.268Z,1008.25
2023-09-26T10:23:18.205Z,1008.25
2023-09-26T10:24:18.181Z,1008.24
2023-09-26T10:25:18.245Z,1008.24
2023-09-26T10:26:18.164Z,1008.23
2023-09-26T10:27:27.794Z,1008.23
2023-09-26T10:28:18.250Z,1008.21
2023-09-26T10:29:18.155Z,1008.20
2023-09-26T10:30:18.130Z,1008.20
2023-09-26T10:31:18.191Z,1008.23
2023-09-26T10:32:18.109Z,1008.22
2023-09-26T10:33:36.621Z,1008.23
2023-09-26T10:34:18.132Z,1008.25
2023-09-26T11:15:19.703Z,1008.26
2023-09-26T11:15:25.472Z,1008.02
2023-09-26T11:16:25.462Z,1008.03
2023-09-26T11:17:25.615Z,1008.07
2023-09-26T11:18:25.631Z,1008.08
2023-09-26T11:19:25.508Z,1008.11
2023-09-26T11:20:25.455Z,1008.11
2023-09-26T11:21:30.215Z,1008.10
2023-09-26T11:22:25.449Z,1008.11
2023-09-26T11:23:25.381Z,1008.10
2023-09-26T11:24:25.394Z,1008.10
2023-09-26T11:25:25.484Z,1008.10
2023-09-26T11:26:25.399Z,1008.11
2023-09-26T11:27:25.483Z,1008.10
2023-09-26T11:28:25.385Z,1008.12
2023-09-26T11:29:25.330Z,1008.13
2023-09-26T11:30:25.356Z,1008.13
2023-09-26T11:31:25.574Z,1008.11
2023-09-26T11:32:25.423Z,1008.07
2023-09-26T11:33:25.461Z,1008.05
2023-09-26T11:34:25.412Z,1008.05
2023-09-26T11:35:25.295Z,1008.04
2023-09-26T11:36:25.276Z,1008.04
2023-09-26T11:37:25.574Z,1008.03
2023-09-26T11:38:25.247Z,1008.06
2023-09-26T11:39:25.224Z,1008.07
2023-09-26T11:40:25.573Z,1008.08
2023-09-26T11:41:35.524Z,1008.08
2023-09-26T11:42:25.324Z,1008.11
2023-09-26T11:43:25.190Z,1008.12
2023-09-26T11:44:25.184Z,1008.10
2023-09-26T11:45:25.219Z,1008.09
2023-09-26T11:46:25.204Z,1008.06
2023-09-26T11:47:25.226Z,1008.04
2023-09-26T11:48:25.161Z,1008.00
2023-09-26T11:49:25.131Z,1007.97
2023-09-26T11:50:25.145Z,1007.95
2023-09-26T11:51:25.118Z,1007.93
2023-09-26T11:52:25.130Z,1007.87
2023-09-26T11:53:25.091Z,1007.86
2023-09-26T11:54:25.085Z,1007.83
2023-09-26T11:55:25.093Z,1007.81
2023-09-26T11:56:25.097Z,1007.75
2023-09-26T11:57:25.029Z,1007.76
2023-09-26T11:58:25.102Z,1007.78
2023-09-26T11:59:25.175Z,1007.84
2023-09-26T12:00:25.053Z,1007.83
2023-09-26T12:01:25.034Z,1007.84
2023-09-26T12:02:25.102Z,1007.83
2023-09-26T12:03:25.023Z,1007.86
2023-09-26T12:04:25.006Z,1007.86
2023-09-26T12:05:25.030Z,1007.89
2023-09-26T12:06:24.966Z,1007.89
2023-09-26T12:07:24.945Z,1007.87
2023-09-26T12:08:24.938Z,1007.83
2023-09-26T12:09:25.058Z,1007.80
2023-09-26T12:10:24.921Z,1007.75
2023-09-26T12:11:24.927Z,1007.73
2023-09-26T12:12:24.902Z,1007.74
2023-09-26T12:13:24.899Z,1007.77
2023-09-26T12:14:24.877Z,1007.79
2023-09-26T12:15:24.912Z,1007.83
2023-09-26T12:16:24.956Z,1007.86
2023-09-26T12:17:25.028Z,1007.86
2023-09-26T12:18:24.920Z,1007.89
2023-09-26T12:19:24.839Z,1007.88
2023-09-26T12:20:24.833Z,1007.88
2023-09-26T12:21:24.801Z,1007.86
2023-09-26T12:22:24.835Z,1007.82
2023-09-26T12:23:25.079Z,1007.78
2023-09-26T12:24:24.788Z,1007.77
2023-09-26T12:25:24.824Z,1007.75
2023-09-26T12:26:24.774Z,1007.75
2023-09-26T12:27:24.753Z,1007.77
2023-09-26T12:28:24.770Z,1007.77
2023-09-26T12:29:24.741Z,1007.80
2023-09-26T12:30:24.723Z,1007.81
2023-09-26T12:31:25.041Z,1007.83
2023-09-26T12:32:24.811Z,1007.82
2023-09-26T12:33:24.814Z,1007.80
2023-09-26T12:34:24.691Z,1007.79
2023-09-26T12:35:24.688Z,1007.76
2023-09-26T12:36:25.000Z,1007.74
2023-09-26T12:37:24.671Z,1007.73
2023-09-26T12:38:24.643Z,1007.74
2023-09-26T12:39:24.630Z,1007.74
2023-09-26T12:40:24.623Z,1007.72
2023-09-26T12:41:24.609Z,1007.71
2023-09-26T12:42:24.618Z,1007.73
2023-09-26T12:43:24.608Z,1007.74
2023-09-26T12:44:24.620Z,1007.76
2023-09-26T12:45:24.556Z,1007.74